Decoded Metar for KUGN (CHICAGO in IL, USA) (IATA:UGN) | Meteo·Mobile Aviation Weather
aviador You're here:

KUGN Decoded Metar

CHICAGO in IL, USA
Report Time2019-03-21 15:55:00
UTC Time2019-03-22 10:52:23
Flight Rules Old
Wind350° at 05 kt
W.Decomp.*RWY 32: 4.2 kt HW 2.7 kt RCW
RWY 05: 2.7 kt HW 4.2 kt LCW
W.Rank350° ranks 36
Current wind is below 350° avg. (6.3)
Visibility8047 m
Phenomena:Haze
Clouds:Overcast 011 Hf
Expected CloudBase > 1,200 ft AGL from Temp-Dew spread
Ceiling1,100 ft
Temp04°C (ISA -10)
Dew Point01°C (81% RH)
AAT0.4°C
QNH1017 hPa
Density Alt-469 ft
Elevation728 ft
Report Wrong Elevation
Raw Report
KUGN 211555Z 35005KT 5SM HZ OVC011 04/01 A3002 RMK AO2 CIG 009V013
SLP173 T00390011=

Extra information for KUGN:More info

Metar Taf Metar & Taf Last 4 Metars F.Rules Stats Wind Profile Meteogram Temp Stats Airport Information Weather charts Add Link Nearby VenuesMetar ALERT Operation Metar Decoded Social comments

AIRNAV info for KUGN